Oasis of the Seas — C6XS7 — position and weather

sailwx.info

Track history (hours):
 
Tides and Currents Weather Stations Pressure Air Temp Water Temp Dewpoint Dewpoint Depression Visibility Wind Speed Wind Dir Waves Ship Positions

Oasis of the Seas

Last reported at 2016-Dec-03 12:00 UTC. Time now 2016-Dec-03 19:39 UTC.
Position N 24°54' W 073°48'.

Length 360 m; draft 9.3 m.

Type: Passenger vessel. MMSI: 311020600.

Wind from 360 at 4 knots

Barometer 1022.3 mb
Air temperature 25.0 ° C
Visibility: greater than 10.8 NM
Water temperature 28.5 ° C

Date/timePositionNaut miles runAvg speedWind from/ knotsBaromVisibWave heightAir tempDewpointWater temp
2016-Dec-03 12:00N 24°54' W 073°48'48220.1 360 / 41022.310.8 25.0 28.5
2016-Dec-02 12:00N 20°24' W 066°36'22718.2 060 / 161020.310.8 27.3 30.3
2016-Dec-01 23:29N 18°08' W 063°23'1818.9
2016-Dec-01 22:31N 17°59' W 063°06'3 0.4
2016-Dec-01 13:25N 18°01' W 063°03'6 2.8
2016-Dec-01 11:28N 18°00' W 063°09'9 9.8
2016-Dec-01 10:30N 17°60' W 063°19'10 9.8
2016-Dec-01 09:32N 18°00' W 063°29'10 9.7
2016-Dec-01 08:32N 18°01' W 063°39'129 6.3
2016-Nov-30 12:00N 18°42' W 065°48'51719.9 050 / 231016.310.8 26.7 30.4
2016-Nov-29 10:00N 23°36' W 073°24'   080 / 401017.710.8 25.2 29.2
2016-Nov-27 02:33N 26°15' W 079°48'2020.0
2016-Nov-27 01:33N 25°55' W 079°50'2020.1
2016-Nov-27 00:33N 25°36' W 079°54'3019.2
2016-Nov-26 23:00N 25°06' W 080°00'11819.7 030 / 201020.310.8 25.0 29.0
2016-Nov-26 17:00N 24°00' W 081°48'35520.3 020 / 221022.310.8 27.0 29.0
2016-Nov-25 23:29N 20°32' W 086°59'3 3.5
2016-Nov-25 22:31N 20°29' W 086°59'0 0.0
2016-Nov-25 21:31N 20°29' W 086°59'0 0.0
2016-Nov-25 20:31N 20°29' W 086°59'0 0.0
2016-Nov-25 19:31N 20°29' W 086°59'0 0.0
2016-Nov-25 18:31N 20°29' W 086°59'0 0.0
2016-Nov-25 17:31N 20°29' W 086°59'0 0.0
2016-Nov-25 16:31N 20°29' W 086°59'0 0.0
2016-Nov-25 15:31N 20°29' W 086°59'0 0.0
2016-Nov-25 14:31N 20°29' W 086°59'0 0.0
2016-Nov-25 13:31N 20°29' W 086°59'0 0.0
2016-Nov-25 12:31N 20°29' W 086°59'0 0.3
2016-Nov-25 11:33N 20°29' W 086°59'  
Track history (hours):
 
Tides and Currents Weather Stations Pressure Air Temp Water Temp Dewpoint Dewpoint Depression Visibility Wind Speed Wind Dir Waves Ship Positions

Oasis of the Seas

Last reported at 2016-Dec-03 12:00 UTC. Time now 2016-Dec-03 19:39 UTC.
Position N 24°54' W 073°48'.

Length 360 m; draft 9.3 m.

Type: Passenger vessel. MMSI: 311020600.

Wind from 360 at 4 knots

Barometer 1022.3 mb
Air temperature 25.0 ° C
Visibility: greater than 10.8 NM
Water temperature 28.5 ° C

Date/timePositionNaut miles runAvg speedWind from/ knotsBaromVisibWave heightAir tempDewpointWater temp
2016-Dec-03 12:00N 24°54' W 073°48'48220.1 360 / 41022.310.8 25.0 28.5
2016-Dec-02 12:00N 20°24' W 066°36'22718.2 060 / 161020.310.8 27.3 30.3
2016-Dec-01 23:29N 18°08' W 063°23'1818.9
2016-Dec-01 22:31N 17°59' W 063°06'3 0.4
2016-Dec-01 13:25N 18°01' W 063°03'6 2.8
2016-Dec-01 11:28N 18°00' W 063°09'9 9.8
2016-Dec-01 10:30N 17°60' W 063°19'10 9.8
2016-Dec-01 09:32N 18°00' W 063°29'10 9.7
2016-Dec-01 08:32N 18°01' W 063°39'129 6.3
2016-Nov-30 12:00N 18°42' W 065°48'51719.9 050 / 231016.310.8 26.7 30.4
2016-Nov-29 10:00N 23°36' W 073°24'   080 / 401017.710.8 25.2 29.2
2016-Nov-27 02:33N 26°15' W 079°48'2020.0
2016-Nov-27 01:33N 25°55' W 079°50'2020.1
2016-Nov-27 00:33N 25°36' W 079°54'3019.2
2016-Nov-26 23:00N 25°06' W 080°00'11819.7 030 / 201020.310.8 25.0 29.0
2016-Nov-26 17:00N 24°00' W 081°48'35520.3 020 / 221022.310.8 27.0 29.0
2016-Nov-25 23:29N 20°32' W 086°59'3 3.5
2016-Nov-25 22:31N 20°29' W 086°59'0 0.0
2016-Nov-25 21:31N 20°29' W 086°59'0 0.0
2016-Nov-25 20:31N 20°29' W 086°59'0 0.0
2016-Nov-25 19:31N 20°29' W 086°59'0 0.0
2016-Nov-25 18:31N 20°29' W 086°59'0 0.0
2016-Nov-25 17:31N 20°29' W 086°59'0 0.0
2016-Nov-25 16:31N 20°29' W 086°59'0 0.0
2016-Nov-25 15:31N 20°29' W 086°59'0 0.0
2016-Nov-25 14:31N 20°29' W 086°59'0 0.0
2016-Nov-25 13:31N 20°29' W 086°59'0 0.0
2016-Nov-25 12:31N 20°29' W 086°59'0 0.3
2016-Nov-25 11:33N 20°29' W 086°59'  

Dump ship's entire track history